Time;durP1;ratioP1;P1;durP2;ratioP2;P2;SDS_P1;SDS_P2;PMS_P1;PMS_P2;Temp;Humidity;BMP_temperature;BMP_pressure;BME280_temperature;BME280_humidity;BME280_pressure;Samples;Min_cycle;Max_cycle;Signal;HPM_P1;HPM_P2
2021/12/19 00:09:30;;;;;;;23.80;11.23;;;7.20;99.90;;;;;;4902848;29;20056;-46
2021/12/19 00:11:56;;;;;;;25.35;12.73;;;7.20;99.90;;;;;;4902011;29;20368;-47
2021/12/19 00:14:23;;;;;;;22.05;10.70;;;7.20;99.90;;;;;;4902012;29;20479;-47
2021/12/19 00:16:54;;;;;;;17.55;9.77;;;7.20;99.90;;;;;;4890284;29;20051;-46
2021/12/19 00:19:19;;;;;;;17.10;9.98;;;7.20;99.90;;;;;;4872346;29;20511;-47
2021/12/19 00:21:46;;;;;;;17.45;10.02;;;7.20;99.90;;;;;;4886763;29;20104;-48
2021/12/19 00:24:13;;;;;;;15.55;9.80;;;7.10;99.90;;;;;;4870452;29;20049;-47
2021/12/19 00:26:39;;;;;;;18.55;10.20;;;7.20;99.90;;;;;;4893132;29;20127;-47
2021/12/19 00:29:14;;;;;;;19.80;10.18;;;7.20;99.90;;;;;;4879471;29;20713;-46
2021/12/19 00:31:40;;;;;;;17.55;8.50;;;7.20;99.90;;;;;;4890144;29;20048;-47
2021/12/19 00:34:06;;;;;;;14.40;7.07;;;7.20;99.90;;;;;;4901339;29;20620;-46
2021/12/19 00:36:32;;;;;;;12.13;6.32;;;7.20;99.90;;;;;;4885109;29;20059;-45
2021/12/19 00:38:57;;;;;;;14.45;6.78;;;7.20;99.90;;;;;;4895531;29;20685;-47
2021/12/19 00:41:23;;;;;;;9.88;6.60;;;7.20;99.90;;;;;;4914674;29;20408;-46
2021/12/19 00:43:55;;;;;;;13.35;6.72;;;7.20;99.90;;;;;;4936268;29;20113;-49
2021/12/19 00:46:23;;;;;;;10.10;6.35;;;7.20;99.90;;;;;;4937933;29;20070;-47
2021/12/19 00:48:52;;;;;;;10.55;5.25;;;7.20;99.90;;;;;;4926570;29;20047;-46
2021/12/19 00:51:22;;;;;;;10.15;4.88;;;7.20;99.90;;;;;;4920872;29;20055;-47
2021/12/19 00:53:49;;;;;;;8.73;4.90;;;7.10;99.90;;;;;;4938812;29;20146;-46
2021/12/19 00:56:15;;;;;;;9.10;4.65;;;7.20;99.90;;;;;;4939849;29;20471;-47
2021/12/19 00:58:41;;;;;;;46.50;21.90;;;7.20;99.90;;;;;;4939647;29;20039;-47
2021/12/19 01:01:08;;;;;;;11.98;5.05;;;7.10;99.90;;;;;;4937199;29;20052;-46
2021/12/19 01:03:35;;;;;;;13.00;6.68;;;7.10;99.90;;;;;;4899027;29;20144;-49
2021/12/19 01:06:01;;;;;;;11.60;5.70;;;7.10;99.90;;;;;;4945822;29;20094;-47
2021/12/19 01:08:26;;;;;;;9.00;4.45;;;7.10;99.90;;;;;;4945760;29;20437;-46
2021/12/19 01:10:52;;;;;;;10.48;4.18;;;7.10;99.90;;;;;;4945453;29;20046;-49
2021/12/19 01:13:18;;;;;;;4.95;3.15;;;7.10;99.90;;;;;;4923867;28;20135;-50
2021/12/19 01:15:46;;;;;;;5.82;3.33;;;7.20;99.90;;;;;;4955995;28;20634;-46
2021/12/19 01:18:13;;;;;;;6.95;3.30;;;7.10;99.90;;;;;;4941343;28;20879;-52
2021/12/19 01:20:42;;;;;;;7.78;3.50;;;7.10;99.90;;;;;;4911202;29;20138;-48
2021/12/19 01:23:09;;;;;;;6.65;3.58;;;7.10;99.90;;;;;;4922628;29;20450;-46
2021/12/19 01:25:35;;;;;;;6.82;4.10;;;7.10;99.90;;;;;;4935542;28;20047;-46
2021/12/19 01:28:01;;;;;;;8.13;3.47;;;7.10;99.90;;;;;;4925956;29;20107;-49
2021/12/19 01:30:27;;;;;;;5.25;3.30;;;7.00;99.90;;;;;;4925331;29;20578;-49
2021/12/19 01:32:53;;;;;;;6.72;3.42;;;7.00;99.90;;;;;;4909804;29;20055;-47
2021/12/19 01:35:21;;;;;;;5.97;3.42;;;7.00;99.90;;;;;;4924316;29;20055;-47
2021/12/19 01:37:47;;;;;;;6.07;3.72;;;7.10;99.90;;;;;;4925313;29;20443;-46
2021/12/19 01:40:17;;;;;;;6.70;2.90;;;7.10;99.90;;;;;;4908615;29;20055;-47
2021/12/19 01:42:45;;;;;;;4.95;3.00;;;7.10;99.90;;;;;;4937539;28;20047;-49
2021/12/19 01:45:13;;;;;;;5.70;2.60;;;7.10;99.90;;;;;;4934172;28;20051;-47
2021/12/19 01:47:40;;;;;;;4.70;2.67;;;7.10;99.90;;;;;;4926392;28;20529;-46
2021/12/19 01:50:08;;;;;;;6.82;3.20;;;7.00;99.90;;;;;;4907385;29;20074;-47
2021/12/19 01:52:34;;;;;;;8.63;3.55;;;7.10;99.90;;;;;;4907025;28;20066;-46
2021/12/19 01:55:01;;;;;;;5.40;3.17;;;7.00;99.90;;;;;;4925268;29;20051;-46
2021/12/19 01:57:27;;;;;;;7.65;3.30;;;7.10;99.90;;;;;;4939239;28;20054;-46
2021/12/19 05:54:57;;;;;;;12.90;5.68;;;6.80;99.90;;;;;;4931307;29;20447;-47
2021/12/19 05:57:26;;;;;;;17.70;6.00;;;6.80;99.90;;;;;;4940726;28;20071;-46
2021/12/19 05:59:51;;;;;;;21.17;7.65;;;6.80;99.90;;;;;;4943752;28;20051;-49
2021/12/19 06:02:17;;;;;;;26.35;9.07;;;6.80;99.90;;;;;;4928933;28;20150;-48
2021/12/19 06:04:44;;;;;;;21.15;8.45;;;6.80;99.90;;;;;;4940596;28;20066;-47
2021/12/19 06:07:10;;;;;;;21.80;9.82;;;6.80;99.90;;;;;;4932922;28;20255;-47
2021/12/19 06:09:41;;;;;;;24.38;9.82;;;6.80;99.90;;;;;;4943875;28;20062;-46
2021/12/19 06:12:07;;;;;;;31.27;11.38;;;6.90;99.90;;;;;;4943326;28;20529;-47
2021/12/19 06:14:34;;;;;;;21.88;11.10;;;6.80;99.90;;;;;;4934858;28;20052;-46
2021/12/19 06:17:00;;;;;;;24.00;11.23;;;6.80;99.90;;;;;;4921256;29;20087;-47
2021/12/19 06:19:27;;;;;;;32.80;12.30;;;6.80;99.90;;;;;;4931702;28;20640;-47
2021/12/19 06:21:52;;;;;;;27.80;12.00;;;6.80;99.90;;;;;;4907019;29;20142;-47
2021/12/19 06:24:21;;;;;;;25.65;10.63;;;6.90;99.90;;;;;;4925302;29;20055;-46
2021/12/19 06:26:47;;;;;;;28.38;10.70;;;6.90;99.90;;;;;;4937012;29;20578;-47
2021/12/19 06:29:13;;;;;;;21.13;8.73;;;6.80;99.90;;;;;;4944062;29;20130;-45
2021/12/19 06:31:39;;;;;;;15.73;5.70;;;6.90;99.90;;;;;;4922510;29;20139;-48
2021/12/19 06:34:05;;;;;;;25.35;7.05;;;6.80;99.90;;;;;;4940112;28;20053;-46
2021/12/19 06:36:31;;;;;;;18.50;7.25;;;6.80;99.90;;;;;;4939201;28;20382;-46
2021/12/19 06:38:57;;;;;;;19.40;7.40;;;6.80;99.90;;;;;;4925186;29;20450;-46
2021/12/19 06:41:23;;;;;;;13.32;5.85;;;6.80;99.90;;;;;;4942600;28;20047;-47
2021/12/19 06:43:49;;;;;;;14.30;4.32;;;6.80;99.90;;;;;;4942282;28;20043;-46
2021/12/19 06:46:15;;;;;;;17.50;4.97;;;6.80;99.90;;;;;;4940822;28;20051;-45
2021/12/19 06:48:40;;;;;;;13.57;5.38;;;6.80;99.90;;;;;;4915272;29;20066;-47
2021/12/19 06:51:06;;;;;;;15.43;4.90;;;6.80;99.90;;;;;;4941752;28;20560;-48
2021/12/19 06:53:32;;;;;;;16.95;4.63;;;6.80;99.90;;;;;;4925149;29;20673;-48
2021/12/19 06:55:58;;;;;;;23.88;5.00;;;6.80;99.90;;;;;;4941962;29;20095;-47
2021/12/19 06:58:24;;;;;;;13.27;4.93;;;6.80;99.90;;;;;;4926153;29;20058;-49
2021/12/19 07:00:50;;;;;;;19.10;5.35;;;6.80;99.90;;;;;;4944823;29;20055;-48
2021/12/19 07:03:23;;;;;;;19.83;5.28;;;6.80;99.90;;;;;;4926429;29;20439;-46
2021/12/19 07:05:50;;;;;;;17.42;5.25;;;6.80;99.90;;;;;;4926955;29;20391;-46
2021/12/19 07:08:17;;;;;;;15.07;4.50;;;6.80;99.90;;;;;;4944233;29;20066;-46
2021/12/19 07:10:43;;;;;;;15.55;5.82;;;6.80;99.90;;;;;;4944777;29;20054;-48
2021/12/19 07:13:09;;;;;;;16.67;5.10;;;6.80;99.90;;;;;;4913431;29;20090;-47
2021/12/19 07:15:34;;;;;;;15.10;4.70;;;6.80;99.90;;;;;;4925975;29;20150;-47
2021/12/19 07:18:02;;;;;;;19.83;5.93;;;6.80;99.90;;;;;;4927585;29;20643;-46
2021/12/19 07:20:29;;;;;;;23.70;5.78;;;6.80;99.90;;;;;;4947636;29;20044;-47
2021/12/19 07:22:55;;;;;;;16.42;5.57;;;6.80;99.90;;;;;;4946943;29;20125;-46
2021/12/19 07:25:21;;;;;;;18.15;5.68;;;6.80;99.90;;;;;;4929260;29;20098;-46
2021/12/19 07:27:47;;;;;;;21.85;6.47;;;6.90;99.90;;;;;;4917240;29;20055;-46
2021/12/19 07:30:13;;;;;;;18.10;6.40;;;6.80;99.90;;;;;;4946639;29;20676;-46
2021/12/19 07:32:39;;;;;;;12.20;5.13;;;6.80;99.90;;;;;;4929291;29;20549;-46
2021/12/19 07:35:08;;;;;;;16.80;4.93;;;6.80;99.90;;;;;;4945679;29;20413;-46
2021/12/19 07:37:36;;;;;;;14.60;4.75;;;6.90;99.90;;;;;;4933069;29;20055;-48
2021/12/19 07:40:13;;;;;;;13.15;3.85;;;6.80;99.90;;;;;;4935267;29;20078;-46
2021/12/19 07:42:39;;;;;;;13.70;3.85;;;6.80;99.90;;;;;;4946420;29;20470;-46
2021/12/19 07:45:06;;;;;;;8.07;2.92;;;6.80;99.90;;;;;;4931261;29;20055;-45
2021/12/19 07:47:31;;;;;;;12.15;2.75;;;6.80;99.90;;;;;;4946500;28;20051;-47
2021/12/19 07:49:57;;;;;;;6.07;2.35;;;6.80;99.90;;;;;;4945596;29;20242;-46
2021/12/19 07:52:23;;;;;;;10.25;2.58;;;6.80;99.90;;;;;;4945596;29;20047;-45
2021/12/19 07:54:48;;;;;;;12.98;3.05;;;6.80;99.90;;;;;;4944516;28;20417;-47
2021/12/19 07:57:14;;;;;;;11.30;3.15;;;6.80;99.90;;;;;;4945055;28;20057;-46
2021/12/19 07:59:40;;;;;;;9.25;3.03;;;6.80;99.90;;;;;;4943333;28;20157;-46
2021/12/19 08:02:06;;;;;;;10.70;3.03;;;6.80;99.90;;;;;;4941105;28;20549;-47
2021/12/19 08:04:31;;;;;;;9.48;3.00;;;6.80;99.90;;;;;;4926223;29;20565;-48
2021/12/19 08:06:58;;;;;;;10.77;2.90;;;6.80;99.90;;;;;;4945851;28;20047;-46
2021/12/19 08:09:36;;;;;;;12.10;4.53;;;6.70;99.90;;;;;;4945548;28;20058;-47
2021/12/19 08:12:05;;;;;;;14.20;4.20;;;6.80;99.90;;;;;;4925189;29;20059;-46
2021/12/19 08:14:32;;;;;;;12.45;3.15;;;6.80;99.90;;;;;;4927058;29;20497;-46
2021/12/19 08:16:58;;;;;;;11.38;3.03;;;6.70;99.90;;;;;;4944085;28;20086;-46
2021/12/19 08:19:24;;;;;;;9.88;2.88;;;6.70;99.90;;;;;;4941543;28;20137;-47
2021/12/19 08:21:50;;;;;;;11.23;3.20;;;6.80;99.90;;;;;;4934811;29;20055;-46
2021/12/19 08:24:16;;;;;;;10.18;3.22;;;6.80;99.90;;;;;;4947607;29;20469;-46
2021/12/19 08:26:45;;;;;;;7.78;2.83;;;6.80;99.90;;;;;;4921317;29;20418;-49
2021/12/19 08:29:11;;;;;;;10.35;3.28;;;6.80;99.90;;;;;;4942206;28;20069;-47
2021/12/19 08:31:38;;;;;;;10.10;3.28;;;6.80;99.90;;;;;;4944366;28;20043;-49
2021/12/19 08:34:04;;;;;;;11.68;3.50;;;6.80;99.90;;;;;;4940720;28;20071;-46
2021/12/19 08:36:29;;;;;;;12.63;3.67;;;6.80;99.90;;;;;;4944422;28;20194;-48
2021/12/19 08:38:56;;;;;;;8.15;3.40;;;6.80;99.90;;;;;;4942216;29;20047;-46
2021/12/19 08:41:21;;;;;;;9.27;3.70;;;6.80;99.90;;;;;;4942970;28;20508;-46
2021/12/19 08:43:47;;;;;;;12.02;4.22;;;6.80;99.90;;;;;;4942418;28;20047;-47
2021/12/19 08:46:13;;;;;;;10.95;3.83;;;6.80;99.90;;;;;;4941165;28;20110;-47
2021/12/19 08:48:39;;;;;;;13.65;3.75;;;6.80;99.90;;;;;;4941878;29;20102;-46
2021/12/19 08:51:06;;;;;;;13.65;4.50;;;6.80;99.90;;;;;;4942273;28;20164;-46
2021/12/19 08:53:32;;;;;;;12.02;4.22;;;6.80;99.90;;;;;;4929827;29;20081;-46
2021/12/19 08:55:58;;;;;;;19.08;4.40;;;6.90;99.90;;;;;;4932180;29;20098;-47
2021/12/19 08:58:25;;;;;;;11.77;4.05;;;6.90;99.90;;;;;;4944521;28;20808;-48
2021/12/19 09:00:51;;;;;;;12.38;4.38;;;6.90;99.90;;;;;;4923965;29;20158;-46
2021/12/19 09:03:17;;;;;;;17.73;4.80;;;6.90;99.90;;;;;;4937460;28;20057;-47
2021/12/19 09:05:43;;;;;;;12.27;4.40;;;7.00;99.90;;;;;;4908047;29;20404;-49
2021/12/19 09:08:09;;;;;;;20.05;5.72;;;7.00;99.90;;;;;;4937392;28;20054;-47
2021/12/19 09:10:35;;;;;;;19.05;4.90;;;7.00;99.90;;;;;;4925695;29;20145;-46
2021/12/19 09:13:00;;;;;;;10.88;4.22;;;7.00;99.90;;;;;;4943002;28;20058;-49
2021/12/19 09:15:26;;;;;;;17.58;4.18;;;7.10;99.90;;;;;;4923676;29;20051;-46
2021/12/19 09:17:52;;;;;;;14.35;4.75;;;7.10;99.90;;;;;;4942031;28;20047;-46
2021/12/19 09:20:18;;;;;;;12.73;4.22;;;7.10;99.90;;;;;;4908084;29;20059;-46
2021/12/19 09:22:45;;;;;;;16.33;4.00;;;7.10;99.90;;;;;;4937993;29;20047;-48
2021/12/19 09:25:11;;;;;;;14.63;5.10;;;7.20;99.90;;;;;;4913986;29;20055;-46
2021/12/19 09:27:40;;;;;;;16.33;4.55;;;7.20;99.90;;;;;;4921747;29;20111;-46
2021/12/19 09:30:06;;;;;;;18.95;5.20;;;7.30;99.90;;;;;;4943341;29;20054;-48
2021/12/19 09:32:32;;;;;;;16.83;4.20;;;7.30;99.90;;;;;;4943315;29;20047;-48
2021/12/19 09:34:57;;;;;;;17.90;4.68;;;7.30;99.90;;;;;;4932972;29;20051;-49
2021/12/19 09:37:23;;;;;;;20.02;5.30;;;7.30;99.90;;;;;;4944065;29;20825;-47
2021/12/19 09:39:51;;;;;;;23.80;5.28;;;7.40;99.90;;;;;;4945242;28;20445;-52
2021/12/19 09:42:20;;;;;;;16.25;4.32;;;7.40;99.90;;;;;;4944336;29;20058;-47
2021/12/19 09:44:46;;;;;;;12.75;4.18;;;7.40;99.90;;;;;;4931262;29;20055;-47
2021/12/19 09:47:12;;;;;;;13.35;4.13;;;7.40;99.90;;;;;;4942343;28;20098;-48
2021/12/19 09:49:38;;;;;;;16.15;4.65;;;7.40;99.90;;;;;;4942906;28;20500;-46
2021/12/19 09:52:07;;;;;;;19.17;4.63;;;7.40;99.90;;;;;;4933090;28;20055;-46
2021/12/19 09:54:36;;;;;;;17.05;3.88;;;7.40;99.90;;;;;;4924478;29;20078;-45
2021/12/19 09:57:03;;;;;;;13.48;3.60;;;7.40;99.90;;;;;;4926941;29;20603;-49
2021/12/19 09:59:29;;;;;;;18.27;4.78;;;7.40;99.90;;;;;;4915473;29;20101;-46
2021/12/19 10:01:55;;;;;;;16.23;4.22;;;7.50;99.90;;;;;;4933056;28;20040;-46
2021/12/19 10:04:39;;;;;;;14.73;3.92;;;7.50;99.90;;;;;;4943138;28;20054;-47
2021/12/19 10:07:18;;;;;;;13.95;4.35;;;7.50;99.90;;;;;;4943189;28;20059;-46
2021/12/19 10:10:03;;;;;;;14.10;4.05;;;7.50;99.90;;;;;;4941629;28;20549;-45
2021/12/19 10:14:57;;;;;;;21.13;4.47;;;7.50;99.90;;;;;;4942480;28;20625;-46
2021/12/19 10:17:23;;;;;;;15.43;3.83;;;7.50;99.90;;;;;;4940623;28;20061;-46
2021/12/19 10:19:52;;;;;;;13.38;4.53;;;7.50;99.90;;;;;;4919293;29;20051;-48
2021/12/19 10:22:37;;;;;;;17.88;4.55;;;7.50;99.90;;;;;;4937656;29;20514;-46
2021/12/19 10:25:24;;;;;;;17.98;4.78;;;7.50;99.90;;;;;;4917936;29;20053;-47
2021/12/19 10:27:55;;;;;;;17.35;4.75;;;7.60;99.90;;;;;;4930404;29;20056;-46
2021/12/19 10:30:26;;;;;;;19.80;4.93;;;7.60;99.90;;;;;;4930599;29;20052;-45
2021/12/19 10:33:03;;;;;;;21.85;5.25;;;7.60;99.90;;;;;;4938574;29;20069;-47
2021/12/19 10:35:33;;;;;;;15.32;4.85;;;7.60;99.90;;;;;;4932956;29;20055;-46
2021/12/19 10:38:01;;;;;;;15.20;4.75;;;7.60;99.90;;;;;;4943381;29;20523;-46
2021/12/19 10:40:27;;;;;;;18.33;5.15;;;7.60;99.90;;;;;;4943361;29;20514;-46
2021/12/19 10:43:04;;;;;;;16.27;4.75;;;7.60;99.90;;;;;;4942295;29;20409;-47
2021/12/19 10:45:51;;;;;;;17.65;5.55;;;7.70;99.90;;;;;;4914091;29;20048;-47
2021/12/19 10:48:20;;;;;;;22.58;5.55;;;7.70;99.90;;;;;;4936718;28;20981;-46
2021/12/19 10:51:10;;;;;;;13.57;4.22;;;7.70;99.90;;;;;;4943094;28;20555;-47
2021/12/19 10:54:03;;;;;;;13.95;4.05;;;7.70;99.90;;;;;;4939063;28;20175;-48
2021/12/19 10:56:35;;;;;;;19.05;3.88;;;7.70;99.90;;;;;;4943655;28;20093;-49
2021/12/19 10:59:14;;;;;;;13.52;4.70;;;7.80;99.90;;;;;;4925509;29;20055;-49
2021/12/19 11:01:44;;;;;;;11.98;3.78;;;7.80;99.90;;;;;;4943871;28;20518;-47
2021/12/19 11:04:20;;;;;;;15.32;4.20;;;7.80;99.90;;;;;;4938832;28;20102;-46
2021/12/19 11:06:53;;;;;;;15.75;3.75;;;7.80;99.90;;;;;;4942111;28;20151;-49
2021/12/19 11:09:33;;;;;;;17.52;4.00;;;7.80;99.90;;;;;;4945518;28;20071;-46
2021/12/19 11:12:00;;;;;;;15.40;4.65;;;7.80;99.90;;;;;;4907547;28;20043;-45
2021/12/19 11:14:43;;;;;;;12.55;3.72;;;7.80;99.90;;;;;;4925280;29;20577;-46
2021/12/19 11:17:20;;;;;;;20.60;4.78;;;7.80;99.90;;;;;;4939945;28;20039;-46
2021/12/19 11:19:51;;;;;;;13.60;5.82;;;7.90;99.90;;;;;;4943746;28;20059;-48
2021/12/19 11:22:23;;;;;;;25.02;7.00;;;7.90;99.90;;;;;;4931836;29;20064;-47
2021/12/19 11:25:00;;;;;;;15.77;4.93;;;7.90;99.90;;;;;;4942632;28;20454;-46
2021/12/19 11:27:28;;;;;;;11.40;4.15;;;7.90;99.90;;;;;;4940284;29;20114;-47
2021/12/19 11:29:56;;;;;;;14.90;5.05;;;7.90;99.90;;;;;;4940895;29;20064;-47
2021/12/19 11:32:28;;;;;;;17.85;5.43;;;7.90;99.90;;;;;;4925043;28;20054;-47
2021/12/19 11:35:05;;;;;;;16.65;4.43;;;7.90;99.90;;;;;;4942894;28;20047;-47
2021/12/19 11:37:36;;;;;;;21.75;5.47;;;7.90;99.90;;;;;;4917682;29;20060;-47
2021/12/19 11:40:04;;;;;;;15.90;4.75;;;7.90;99.90;;;;;;4930273;29;20127;-46
2021/12/19 11:42:40;;;;;;;22.65;5.22;;;7.90;99.90;;;;;;4947958;28;20486;-47
2021/12/19 11:48:26;;;;;;;17.45;4.55;;;7.90;99.90;;;;;;4940491;28;20498;-46
2021/12/19 11:51:04;;;;;;;21.00;5.20;;;8.00;99.90;;;;;;4915827;29;20070;-48
2021/12/19 11:53:39;;;;;;;21.02;4.43;;;8.00;99.90;;;;;;4941185;28;20047;-47
2021/12/19 11:56:09;;;;;;;25.98;5.07;;;8.00;99.90;;;;;;4940128;29;20058;-47
2021/12/19 11:58:52;;;;;;;24.88;5.65;;;8.00;99.90;;;;;;4933537;29;20047;-47
2021/12/19 12:01:26;;;;;;;16.15;4.43;;;8.00;99.90;;;;;;4912944;29;20426;-49
2021/12/19 12:03:53;;;;;;;14.70;4.38;;;8.00;99.90;;;;;;4920867;29;20059;-48
2021/12/19 12:06:22;;;;;;;12.48;3.83;;;8.00;99.90;;;;;;4944131;29;20043;-50
2021/12/19 12:09:03;;;;;;;15.02;2.95;;;8.00;99.90;;;;;;4931458;29;20043;-51
2021/12/19 12:11:30;;;;;;;18.80;3.70;;;8.00;99.90;;;;;;4945817;29;20078;-48
2021/12/19 12:14:23;;;;;;;17.05;3.33;;;8.00;99.90;;;;;;4927874;29;20087;-49
2021/12/19 12:17:04;;;;;;;17.13;3.65;;;8.00;99.90;;;;;;4922803;29;20063;-47
2021/12/19 12:19:38;;;;;;;16.83;3.83;;;8.10;99.90;;;;;;4933824;28;20058;-46
2021/12/19 12:25:12;;;;;;;13.90;3.08;;;8.10;99.90;;;;;;4858132;29;20053;-48
2021/12/19 12:28:04;;;;;;;12.48;3.65;;;8.10;99.90;;;;;;4856312;29;20481;-47
2021/12/19 12:30:39;;;;;;;36.03;23.38;;;8.10;99.90;;;;;;4846874;29;20061;-47
2021/12/19 12:33:07;;;;;;;52.13;33.65;;;8.10;99.90;;;;;;4854545;29;20053;-47
2021/12/19 12:35:39;;;;;;;23.30;12.27;;;8.10;99.90;;;;;;4844460;29;20129;-48
2021/12/19 12:38:07;;;;;;;19.05;5.55;;;8.10;99.90;;;;;;4849184;29;20135;-46
2021/12/19 12:41:05;;;;;;;19.58;5.57;;;8.10;99.90;;;;;;4847892;29;20531;-47
2021/12/19 12:43:34;;;;;;;25.88;6.70;;;8.10;99.90;;;;;;4867531;29;20056;-47
2021/12/19 12:46:07;;;;;;;22.60;7.60;;;8.10;99.90;;;;;;4864319;29;20052;-48
2021/12/19 12:49:01;;;;;;;20.38;5.03;;;8.10;99.90;;;;;;4870989;29;20175;-48
2021/12/19 12:51:43;;;;;;;20.08;6.43;;;8.10;99.90;;;;;;4865877;29;20057;-47
2021/12/19 12:54:21;;;;;;;16.48;5.65;;;8.00;99.90;;;;;;4867147;29;20065;-49
2021/12/19 12:56:51;;;;;;;13.32;5.60;;;8.00;99.90;;;;;;4873441;29;20052;-47
2021/12/19 12:59:27;;;;;;;18.60;4.38;;;8.00;99.90;;;;;;4839393;29;20045;-48
2021/12/19 13:02:15;;;;;;;17.02;4.82;;;8.00;99.90;;;;;;4890851;28;20059;-48
2021/12/19 13:04:47;;;;;;;18.13;3.53;;;8.00;99.90;;;;;;4919485;29;20043;-46
2021/12/19 13:07:17;;;;;;;19.92;4.32;;;8.00;99.90;;;;;;4921182;29;20502;-47
2021/12/19 13:09:49;;;;;;;18.55;4.78;;;8.00;99.90;;;;;;4930991;28;20413;-47
2021/12/19 13:12:25;;;;;;;22.02;5.07;;;8.00;99.90;;;;;;4904300;29;20058;-47
2021/12/19 13:14:58;;;;;;;13.13;4.15;;;8.00;99.90;;;;;;4937751;28;20047;-49
2021/12/19 13:17:26;;;;;;;18.60;3.88;;;8.00;99.90;;;;;;4938548;28;20063;-47
2021/12/19 13:19:56;;;;;;;18.35;4.00;;;8.00;99.90;;;;;;4924401;29;20055;-49
2021/12/19 13:22:23;;;;;;;14.95;3.40;;;8.00;99.90;;;;;;4942054;28;20134;-47
2021/12/19 13:24:51;;;;;;;15.82;3.72;;;8.00;99.90;;;;;;4940430;28;20055;-49
2021/12/19 13:27:31;;;;;;;21.25;3.75;;;8.00;99.90;;;;;;4940426;29;20051;-47
2021/12/19 13:30:06;;;;;;;18.90;3.67;;;8.00;99.90;;;;;;4941633;28;20047;-47
2021/12/19 13:33:21;;;;;;;25.85;4.10;;;8.00;99.90;;;;;;4940305;28;20098;-46
2021/12/19 13:35:58;;;;;;;20.92;4.32;;;8.00;99.90;;;;;;4942450;28;20087;-48
2021/12/19 13:38:27;;;;;;;16.80;3.88;;;8.00;99.90;;;;;;4921716;29;20055;-46
2021/12/19 13:41:03;;;;;;;24.45;4.97;;;8.00;99.90;;;;;;4924577;29;20478;-47
2021/12/19 13:43:32;;;;;;;17.08;4.25;;;8.00;99.90;;;;;;4938242;29;20054;-46
2021/12/19 13:46:05;;;;;;;20.52;4.75;;;8.00;99.90;;;;;;4940786;28;20059;-47
2021/12/19 13:48:37;;;;;;;14.98;3.30;;;8.00;99.90;;;;;;4933049;28;20525;-46
2021/12/19 13:51:05;;;;;;;18.92;4.55;;;8.00;99.90;;;;;;4941480;28;20059;-48
2021/12/19 13:53:33;;;;;;;20.77;4.80;;;8.00;99.90;;;;;;4938025;28;20509;-47
2021/12/19 13:56:02;;;;;;;21.38;4.22;;;8.00;99.90;;;;;;4940754;28;20047;-47
2021/12/19 13:58:32;;;;;;;14.32;3.50;;;8.00;99.90;;;;;;4941880;28;20051;-46
2021/12/19 14:00:59;;;;;;;19.10;4.32;;;8.00;99.90;;;;;;4922987;29;20707;-48
2021/12/19 14:03:47;;;;;;;17.52;4.38;;;8.00;99.90;;;;;;4919162;28;20055;-48
2021/12/19 14:06:14;;;;;;;20.33;4.03;;;8.00;99.90;;;;;;4941118;28;20074;-49
2021/12/19 14:08:41;;;;;;;19.50;3.83;;;7.90;99.90;;;;;;4937529;28;20105;-47
2021/12/19 14:11:19;;;;;;;19.50;3.35;;;7.90;99.90;;;;;;4942315;28;20046;-48
2021/12/19 14:14:00;;;;;;;40.90;28.73;;;8.00;99.90;;;;;;4917841;29;20055;-46
2021/12/19 14:16:35;;;;;;;23.17;4.72;;;7.90;99.90;;;;;;4908618;28;20059;-47
2021/12/19 14:19:13;;;;;;;20.02;4.38;;;8.00;99.90;;;;;;4942040;28;20058;-47
2021/12/19 14:21:43;;;;;;;18.05;4.30;;;7.90;99.90;;;;;;4923636;29;20063;-48
2021/12/19 14:24:14;;;;;;;29.45;6.28;;;7.90;99.90;;;;;;4941072;29;20124;-49
2021/12/19 14:26:43;;;;;;;16.35;3.63;;;8.00;99.90;;;;;;4902497;29;20106;-49
2021/12/19 14:29:20;;;;;;;23.67;4.65;;;7.90;99.90;;;;;;4924801;29;20145;-47
2021/12/19 14:31:51;;;;;;;24.13;3.97;;;8.00;99.90;;;;;;4928044;29;20556;-47
2021/12/19 14:34:25;;;;;;;20.25;4.13;;;7.90;99.90;;;;;;4945925;28;20756;-51
2021/12/19 14:36:52;;;;;;;21.75;4.63;;;7.90;99.90;;;;;;4926520;29;20050;-50
2021/12/19 14:39:28;;;;;;;15.05;3.78;;;7.90;99.90;;;;;;4942546;29;20058;-47
2021/12/19 14:42:11;;;;;;;17.98;3.72;;;7.90;99.90;;;;;;4927460;29;20490;-47
2021/12/19 14:44:38;;;;;;;21.13;3.25;;;7.80;99.90;;;;;;4943331;29;20348;-47
2021/12/19 14:47:08;;;;;;;16.52;3.38;;;7.80;99.90;;;;;;4943655;29;20051;-47
2021/12/19 14:49:47;;;;;;;12.63;3.00;;;7.80;99.90;;;;;;4945249;29;20138;-48
2021/12/19 14:52:13;;;;;;;16.10;2.78;;;7.80;99.90;;;;;;4943442;29;20043;-46
2021/12/19 14:54:38;;;;;;;14.25;2.15;;;7.70;99.90;;;;;;4944683;29;20063;-49
2021/12/19 14:57:04;;;;;;;13.77;2.25;;;7.70;99.90;;;;;;4944201;28;20576;-47
2021/12/19 14:59:30;;;;;;;10.50;2.95;;;7.70;99.90;;;;;;4945836;28;20046;-47
2021/12/19 15:01:56;;;;;;;11.60;2.30;;;7.70;99.90;;;;;;4941667;28;20635;-48
2021/12/19 15:04:23;;;;;;;8.80;1.90;;;7.70;99.90;;;;;;4923618;29;20062;-47
2021/12/19 15:06:58;;;;;;;14.75;2.22;;;7.60;99.90;;;;;;4924810;28;20094;-48
2021/12/19 15:09:29;;;;;;;12.45;1.70;;;7.70;99.90;;;;;;4944706;28;20065;-48
2021/12/19 15:11:56;;;;;;;11.18;2.33;;;7.70;99.90;;;;;;4926525;29;20066;-47
2021/12/19 15:14:22;;;;;;;13.20;2.08;;;7.70;99.90;;;;;;4941020;29;20055;-48
2021/12/19 15:16:51;;;;;;;10.50;2.25;;;7.70;99.90;;;;;;4938466;28;20040;-47
2021/12/19 15:19:16;;;;;;;10.30;2.58;;;7.60;99.90;;;;;;4941008;28;20055;-49
2021/12/19 15:21:42;;;;;;;11.98;2.40;;;7.60;99.90;;;;;;4941141;29;20059;-49
2021/12/19 15:24:08;;;;;;;12.23;3.20;;;7.60;99.90;;;;;;4944968;29;20494;-47
2021/12/19 15:26:34;;;;;;;12.45;3.50;;;7.60;99.90;;;;;;4941856;28;20429;-48
2021/12/19 15:29:00;;;;;;;11.70;2.50;;;7.60;99.90;;;;;;4940537;28;20528;-47
2021/12/19 15:31:26;;;;;;;12.68;4.10;;;7.60;99.90;;;;;;4945461;29;20498;-47
2021/12/19 15:33:55;;;;;;;16.77;3.20;;;7.60;99.90;;;;;;4942732;28;20046;-47
2021/12/19 15:36:20;;;;;;;12.38;2.83;;;7.60;99.90;;;;;;4927689;29;20548;-45
2021/12/19 15:38:48;;;;;;;21.65;2.80;;;7.60;99.90;;;;;;4943923;28;20059;-47
2021/12/19 15:41:13;;;;;;;15.88;3.92;;;7.60;99.90;;;;;;4944679;29;20520;-48
2021/12/19 15:43:39;;;;;;;22.95;4.50;;;7.60;99.90;;;;;;4944842;29;20043;-47
2021/12/19 15:46:05;;;;;;;10.88;2.53;;;7.60;99.90;;;;;;4929234;29;20502;-50
2021/12/19 15:48:31;;;;;;;15.57;3.08;;;7.60;99.90;;;;;;4925584;28;20605;-47
2021/12/19 15:50:57;;;;;;;12.25;2.50;;;7.60;99.90;;;;;;4945769;28;20092;-50
2021/12/19 15:53:23;;;;;;;16.55;2.78;;;7.60;99.90;;;;;;4921611;29;20605;-47
2021/12/19 15:55:49;;;;;;;17.73;3.67;;;7.50;99.90;;;;;;4929187;29;20432;-46
2021/12/19 15:58:14;;;;;;;11.65;2.05;;;7.50;99.90;;;;;;4909341;29;20055;-46
2021/12/19 16:00:44;;;;;;;15.80;3.72;;;7.60;99.90;;;;;;4928640;29;20075;-48
2021/12/19 16:03:09;;;;;;;15.95;3.10;;;7.50;99.90;;;;;;4944346;28;20165;-47
2021/12/19 16:05:35;;;;;;;14.23;2.78;;;7.50;99.90;;;;;;4943243;29;20101;-47
2021/12/19 16:08:03;;;;;;;15.82;2.55;;;7.50;99.90;;;;;;4944143;29;20095;-47
2021/12/19 16:10:28;;;;;;;11.35;2.58;;;7.50;99.90;;;;;;4942695;28;20054;-47
2021/12/19 16:12:54;;;;;;;11.48;2.20;;;7.40;99.90;;;;;;4926747;29;20055;-48
2021/12/19 16:15:21;;;;;;;11.10;2.30;;;7.30;99.90;;;;;;4925499;29;20055;-47
2021/12/19 16:17:48;;;;;;;13.20;2.40;;;7.30;99.90;;;;;;4943086;28;20082;-46
2021/12/19 16:20:17;;;;;;;9.82;2.90;;;7.30;99.90;;;;;;4942411;29;20162;-46
2021/12/19 16:22:43;;;;;;;8.85;2.08;;;7.30;99.90;;;;;;4940467;29;20089;-47
2021/12/19 16:25:10;;;;;;;19.10;2.05;;;7.30;99.90;;;;;;4943134;28;20051;-46
2021/12/19 16:27:41;;;;;;;7.82;2.00;;;7.30;99.90;;;;;;4941426;29;20047;-45
2021/12/19 16:30:10;;;;;;;11.90;1.85;;;7.30;99.90;;;;;;4939440;29;20054;-49
2021/12/19 16:32:37;;;;;;;9.65;2.00;;;7.30;99.90;;;;;;4943557;29;20055;-47
2021/12/19 16:35:04;;;;;;;17.63;2.55;;;7.30;99.90;;;;;;4939930;28;20043;-46
2021/12/19 16:37:30;;;;;;;8.13;1.75;;;7.30;99.90;;;;;;4942904;29;20062;-46
2021/12/19 16:39:57;;;;;;;14.45;2.22;;;7.30;99.90;;;;;;4940452;29;20055;-46
2021/12/19 16:44:51;;;;;;;7.93;1.52;;;7.30;99.90;;;;;;4943896;29;20057;-47
2021/12/19 16:47:17;;;;;;;9.95;2.08;;;7.30;99.90;;;;;;4924283;28;20542;-48
2021/12/19 16:49:43;;;;;;;11.88;2.50;;;7.30;99.90;;;;;;4942631;28;20050;-48
2021/12/19 16:52:09;;;;;;;11.63;2.00;;;7.30;99.90;;;;;;4942601;28;20502;-47
2021/12/19 16:54:35;;;;;;;13.73;1.95;;;7.30;99.90;;;;;;4920471;29;20070;-49
2021/12/19 16:57:02;;;;;;;11.35;2.67;;;7.30;99.90;;;;;;4944578;28;20063;-50
2021/12/19 16:59:28;;;;;;;10.45;3.28;;;7.30;99.90;;;;;;4947187;28;20051;-47
2021/12/19 17:02:00;;;;;;;11.95;3.10;;;7.30;99.90;;;;;;4943939;28;20415;-50
2021/12/19 17:04:26;;;;;;;6.93;1.25;;;7.30;99.90;;;;;;4947164;28;20466;-48
2021/12/19 17:06:54;;;;;;;8.60;2.70;;;7.30;99.90;;;;;;4924951;28;20082;-47
2021/12/19 17:09:21;;;;;;;7.60;2.10;;;7.20;99.90;;;;;;4942448;29;20568;-47
2021/12/19 17:11:54;;;;;;;12.90;2.58;;;7.20;99.90;;;;;;4940479;28;20051;-48
2021/12/19 17:14:21;;;;;;;16.00;3.13;;;7.20;99.90;;;;;;4941413;28;20059;-46